sensor_id;sensor_type;location;lat;lon;timestamp;P1;durP1;ratioP1;P2;durP2;ratioP2
65706;SDS011;52423;43.512;5.220;2022-09-16T00:00:35;2.38;;;2.17;;
65706;SDS011;52423;43.512;5.220;2022-09-16T00:03:01;2.42;;;2.17;;
65706;SDS011;52423;43.512;5.220;2022-09-16T00:05:28;4.43;;;2.30;;
65706;SDS011;52423;43.512;5.220;2022-09-16T00:07:54;2.90;;;2.15;;
65706;SDS011;52423;43.512;5.220;2022-09-16T00:10:20;2.58;;;2.08;;
65706;SDS011;52423;43.512;5.220;2022-09-16T00:12:46;4.40;;;1.95;;
65706;SDS011;52423;43.512;5.220;2022-09-16T00:15:13;7.60;;;2.03;;
65706;SDS011;52423;43.512;5.220;2022-09-16T00:17:39;3.40;;;1.80;;
65706;SDS011;52423;43.512;5.220;2022-09-16T00:20:05;2.10;;;1.90;;
65706;SDS011;52423;43.512;5.220;2022-09-16T00:22:32;2.42;;;1.63;;
65706;SDS011;52423;43.512;5.220;2022-09-16T00:24:58;2.03;;;1.90;;
65706;SDS011;52423;43.512;5.220;2022-09-16T00:27:23;2.42;;;1.88;;
65706;SDS011;52423;43.512;5.220;2022-09-16T00:29:49;1.95;;;1.67;;
65706;SDS011;52423;43.512;5.220;2022-09-16T00:32:15;3.22;;;1.58;;
65706;SDS011;52423;43.512;5.220;2022-09-16T00:34:40;4.57;;;2.25;;
65706;SDS011;52423;43.512;5.220;2022-09-16T00:37:06;7.65;;;1.73;;
65706;SDS011;52423;43.512;5.220;2022-09-16T00:39:35;3.83;;;2.13;;
65706;SDS011;52423;43.512;5.220;2022-09-16T00:42:02;3.92;;;1.73;;
65706;SDS011;52423;43.512;5.220;2022-09-16T00:47:13;7.32;;;1.63;;
65706;SDS011;52423;43.512;5.220;2022-09-16T00:49:41;2.42;;;1.63;;
65706;SDS011;52423;43.512;5.220;2022-09-16T00:52:08;1.63;;;1.52;;
65706;SDS011;52423;43.512;5.220;2022-09-16T00:54:34;5.85;;;2.15;;
65706;SDS011;52423;43.512;5.220;2022-09-16T00:57:02;3.55;;;1.80;;
65706;SDS011;52423;43.512;5.220;2022-09-16T00:59:31;3.72;;;1.52;;
65706;SDS011;52423;43.512;5.220;2022-09-16T01:02:02;4.07;;;1.52;;
65706;SDS011;52423;43.512;5.220;2022-09-16T01:04:35;5.10;;;1.33;;
65706;SDS011;52423;43.512;5.220;2022-09-16T01:07:03;4.35;;;2.00;;
65706;SDS011;52423;43.512;5.220;2022-09-16T01:09:29;2.05;;;1.30;;
65706;SDS011;52423;43.512;5.220;2022-09-16T01:11:55;1.40;;;1.30;;
65706;SDS011;52423;43.512;5.220;2022-09-16T01:14:21;1.50;;;1.40;;
65706;SDS011;52423;43.512;5.220;2022-09-16T01:31:12;11.27;;;1.85;;
65706;SDS011;52423;43.512;5.220;2022-09-16T01:47:42;1.30;;;1.20;;
65706;SDS011;52423;43.512;5.220;2022-09-16T01:50:32;1.25;;;1.15;;
65706;SDS011;52423;43.512;5.220;2022-09-16T01:55:37;1.25;;;1.15;;
65706;SDS011;52423;43.512;5.220;2022-09-16T02:00:43;1.30;;;1.20;;
65706;SDS011;52423;43.512;5.220;2022-09-16T02:03:14;4.32;;;1.35;;
65706;SDS011;52423;43.512;5.220;2022-09-16T02:05:48;6.70;;;1.15;;
65706;SDS011;52423;43.512;5.220;2022-09-16T02:08:25;1.55;;;1.27;;
65706;SDS011;52423;43.512;5.220;2022-09-16T02:10:56;3.88;;;1.40;;
65706;SDS011;52423;43.512;5.220;2022-09-16T02:13:29;1.85;;;1.10;;
65706;SDS011;52423;43.512;5.220;2022-09-16T02:16:07;2.65;;;1.13;;
65706;SDS011;52423;43.512;5.220;2022-09-16T02:18:37;1.40;;;1.30;;
65706;SDS011;52423;43.512;5.220;2022-09-16T02:21:06;3.80;;;1.42;;
65706;SDS011;52423;43.512;5.220;2022-09-16T02:23:39;2.60;;;1.10;;
65706;SDS011;52423;43.512;5.220;2022-09-16T02:26:08;1.52;;;1.35;;
65706;SDS011;52423;43.512;5.220;2022-09-16T02:28:40;4.93;;;1.60;;
65706;SDS011;52423;43.512;5.220;2022-09-16T02:31:08;1.98;;;1.45;;
65706;SDS011;52423;43.512;5.220;2022-09-16T02:33:37;2.00;;;1.10;;
65706;SDS011;52423;43.512;5.220;2022-09-16T02:36:09;3.80;;;1.52;;
65706;SDS011;52423;43.512;5.220;2022-09-16T02:38:42;3.58;;;1.50;;
65706;SDS011;52423;43.512;5.220;2022-09-16T02:43:39;2.80;;;1.27;;
65706;SDS011;52423;43.512;5.220;2022-09-16T02:46:52;2.30;;;1.30;;
65706;SDS011;52423;43.512;5.220;2022-09-16T02:52:19;3.78;;;1.02;;
65706;SDS011;52423;43.512;5.220;2022-09-16T02:57:30;1.48;;;1.30;;
65706;SDS011;52423;43.512;5.220;2022-09-16T02:59:56;1.77;;;1.30;;
65706;SDS011;52423;43.512;5.220;2022-09-16T03:02:22;1.30;;;1.20;;
65706;SDS011;52423;43.512;5.220;2022-09-16T03:04:48;5.05;;;1.50;;
65706;SDS011;52423;43.512;5.220;2022-09-16T03:07:13;1.42;;;1.33;;
65706;SDS011;52423;43.512;5.220;2022-09-16T03:09:41;1.30;;;1.13;;
65706;SDS011;52423;43.512;5.220;2022-09-16T03:14:52;1.48;;;1.20;;
65706;SDS011;52423;43.512;5.220;2022-09-16T03:23:00;6.38;;;1.40;;
65706;SDS011;52423;43.512;5.220;2022-09-16T03:26:00;2.00;;;1.38;;
65706;SDS011;52423;43.512;5.220;2022-09-16T03:31:29;1.38;;;1.25;;
65706;SDS011;52423;43.512;5.220;2022-09-16T03:34:04;1.50;;;1.40;;
65706;SDS011;52423;43.512;5.220;2022-09-16T03:36:36;2.78;;;1.50;;
65706;SDS011;52423;43.512;5.220;2022-09-16T03:41:34;2.20;;;1.40;;
65706;SDS011;52423;43.512;5.220;2022-09-16T03:44:00;1.65;;;1.20;;
65706;SDS011;52423;43.512;5.220;2022-09-16T03:46:26;3.03;;;1.20;;
65706;SDS011;52423;43.512;5.220;2022-09-16T03:48:56;3.03;;;1.30;;
65706;SDS011;52423;43.512;5.220;2022-09-16T03:51:22;4.72;;;1.63;;
65706;SDS011;52423;43.512;5.220;2022-09-16T03:53:48;2.67;;;1.30;;
65706;SDS011;52423;43.512;5.220;2022-09-16T03:56:15;2.08;;;1.63;;
65706;SDS011;52423;43.512;5.220;2022-09-16T03:58:40;1.30;;;1.20;;
65706;SDS011;52423;43.512;5.220;2022-09-16T04:01:06;1.42;;;1.27;;
65706;SDS011;52423;43.512;5.220;2022-09-16T04:03:31;1.30;;;1.20;;
65706;SDS011;52423;43.512;5.220;2022-09-16T04:05:57;1.98;;;1.30;;
65706;SDS011;52423;43.512;5.220;2022-09-16T04:08:23;3.25;;;1.30;;
65706;SDS011;52423;43.512;5.220;2022-09-16T04:10:52;1.48;;;1.38;;
65706;SDS011;52423;43.512;5.220;2022-09-16T04:13:19;4.43;;;1.23;;
65706;SDS011;52423;43.512;5.220;2022-09-16T04:15:45;3.03;;;1.38;;
65706;SDS011;52423;43.512;5.220;2022-09-16T04:18:11;7.68;;;1.50;;
65706;SDS011;52423;43.512;5.220;2022-09-16T04:20:36;4.53;;;1.30;;
65706;SDS011;52423;43.512;5.220;2022-09-16T04:23:02;11.88;;;1.83;;
65706;SDS011;52423;43.512;5.220;2022-09-16T04:25:27;2.80;;;1.45;;
65706;SDS011;52423;43.512;5.220;2022-09-16T04:27:54;2.00;;;1.30;;
65706;SDS011;52423;43.512;5.220;2022-09-16T04:30:20;1.40;;;1.30;;
65706;SDS011;52423;43.512;5.220;2022-09-16T04:32:45;3.40;;;1.60;;
65706;SDS011;52423;43.512;5.220;2022-09-16T04:35:11;2.08;;;1.52;;
65706;SDS011;52423;43.512;5.220;2022-09-16T04:37:36;4.07;;;1.50;;
65706;SDS011;52423;43.512;5.220;2022-09-16T04:40:02;6.28;;;1.60;;
65706;SDS011;52423;43.512;5.220;2022-09-16T04:42:28;2.72;;;1.52;;
65706;SDS011;52423;43.512;5.220;2022-09-16T04:44:53;3.13;;;1.45;;
65706;SDS011;52423;43.512;5.220;2022-09-16T04:47:19;4.75;;;1.40;;
65706;SDS011;52423;43.512;5.220;2022-09-16T04:49:45;2.80;;;1.50;;
65706;SDS011;52423;43.512;5.220;2022-09-16T04:52:10;1.73;;;1.52;;
65706;SDS011;52423;43.512;5.220;2022-09-16T04:54:36;5.10;;;1.30;;
65706;SDS011;52423;43.512;5.220;2022-09-16T04:57:01;1.27;;;1.17;;
65706;SDS011;52423;43.512;5.220;2022-09-16T04:59:27;1.20;;;1.20;;
65706;SDS011;52423;43.512;5.220;2022-09-16T05:01:53;1.40;;;1.30;;
65706;SDS011;52423;43.512;5.220;2022-09-16T05:04:18;2.53;;;1.50;;
65706;SDS011;52423;43.512;5.220;2022-09-16T05:06:44;6.38;;;1.35;;
65706;SDS011;52423;43.512;5.220;2022-09-16T05:09:10;3.85;;;1.60;;
65706;SDS011;52423;43.512;5.220;2022-09-16T05:11:37;5.75;;;1.60;;
65706;SDS011;52423;43.512;5.220;2022-09-16T05:14:05;1.42;;;1.25;;
65706;SDS011;52423;43.512;5.220;2022-09-16T05:16:32;2.88;;;1.35;;
65706;SDS011;52423;43.512;5.220;2022-09-16T05:18:59;1.75;;;1.20;;
65706;SDS011;52423;43.512;5.220;2022-09-16T05:21:27;1.35;;;1.20;;
65706;SDS011;52423;43.512;5.220;2022-09-16T05:23:53;3.17;;;1.25;;
65706;SDS011;52423;43.512;5.220;2022-09-16T05:26:24;1.17;;;1.00;;
65706;SDS011;52423;43.512;5.220;2022-09-16T05:28:52;2.28;;;1.33;;
65706;SDS011;52423;43.512;5.220;2022-09-16T05:36:34;2.38;;;1.40;;
65706;SDS011;52423;43.512;5.220;2022-09-16T05:39:03;2.78;;;1.65;;
65706;SDS011;52423;43.512;5.220;2022-09-16T05:41:29;1.73;;;1.40;;
65706;SDS011;52423;43.512;5.220;2022-09-16T05:43:56;4.65;;;1.50;;
65706;SDS011;52423;43.512;5.220;2022-09-16T05:46:23;3.20;;;1.45;;
65706;SDS011;52423;43.512;5.220;2022-09-16T05:48:49;2.75;;;1.63;;
65706;SDS011;52423;43.512;5.220;2022-09-16T05:51:16;2.25;;;1.10;;
65706;SDS011;52423;43.512;5.220;2022-09-16T05:53:45;1.88;;;1.20;;
65706;SDS011;52423;43.512;5.220;2022-09-16T05:56:14;2.03;;;1.40;;
65706;SDS011;52423;43.512;5.220;2022-09-16T05:58:44;1.17;;;1.08;;
65706;SDS011;52423;43.512;5.220;2022-09-16T06:01:11;1.42;;;1.25;;
65706;SDS011;52423;43.512;5.220;2022-09-16T06:03:42;2.75;;;2.30;;
65706;SDS011;52423;43.512;5.220;2022-09-16T06:08:36;2.65;;;1.27;;
65706;SDS011;52423;43.512;5.220;2022-09-16T06:11:02;1.40;;;1.10;;
65706;SDS011;52423;43.512;5.220;2022-09-16T06:13:29;5.78;;;1.58;;
65706;SDS011;52423;43.512;5.220;2022-09-16T06:15:56;5.70;;;1.40;;
65706;SDS011;52423;43.512;5.220;2022-09-16T06:18:23;2.22;;;1.40;;
65706;SDS011;52423;43.512;5.220;2022-09-16T06:20:49;4.03;;;1.30;;
65706;SDS011;52423;43.512;5.220;2022-09-16T06:23:16;2.42;;;1.70;;
65706;SDS011;52423;43.512;5.220;2022-09-16T06:25:42;2.92;;;1.42;;
65706;SDS011;52423;43.512;5.220;2022-09-16T06:28:08;2.35;;;1.42;;
65706;SDS011;52423;43.512;5.220;2022-09-16T06:30:36;1.65;;;1.40;;
65706;SDS011;52423;43.512;5.220;2022-09-16T06:33:02;3.00;;;1.30;;
65706;SDS011;52423;43.512;5.220;2022-09-16T06:35:28;5.82;;;1.73;;
65706;SDS011;52423;43.512;5.220;2022-09-16T06:37:54;1.40;;;1.30;;
65706;SDS011;52423;43.512;5.220;2022-09-16T06:40:20;1.90;;;1.17;;
65706;SDS011;52423;43.512;5.220;2022-09-16T06:42:45;1.60;;;1.10;;
65706;SDS011;52423;43.512;5.220;2022-09-16T06:45:11;1.30;;;1.20;;
65706;SDS011;52423;43.512;5.220;2022-09-16T06:47:37;1.88;;;1.45;;
65706;SDS011;52423;43.512;5.220;2022-09-16T06:50:03;1.17;;;1.08;;
65706;SDS011;52423;43.512;5.220;2022-09-16T06:52:29;1.85;;;1.10;;
65706;SDS011;52423;43.512;5.220;2022-09-16T06:54:56;7.65;;;1.48;;
65706;SDS011;52423;43.512;5.220;2022-09-16T06:57:22;2.25;;;1.17;;
65706;SDS011;52423;43.512;5.220;2022-09-16T06:59:49;3.08;;;1.23;;
65706;SDS011;52423;43.512;5.220;2022-09-16T07:02:15;1.92;;;1.10;;
65706;SDS011;52423;43.512;5.220;2022-09-16T07:04:41;3.47;;;1.30;;
65706;SDS011;52423;43.512;5.220;2022-09-16T07:07:07;1.45;;;1.30;;
65706;SDS011;52423;43.512;5.220;2022-09-16T07:09:33;3.92;;;1.23;;
65706;SDS011;52423;43.512;5.220;2022-09-16T07:11:59;2.90;;;1.30;;
65706;SDS011;52423;43.512;5.220;2022-09-16T07:14:25;2.35;;;1.30;;
65706;SDS011;52423;43.512;5.220;2022-09-16T07:16:51;5.95;;;1.20;;
65706;SDS011;52423;43.512;5.220;2022-09-16T07:19:17;2.90;;;1.20;;
65706;SDS011;52423;43.512;5.220;2022-09-16T07:21:43;3.83;;;1.10;;
65706;SDS011;52423;43.512;5.220;2022-09-16T07:24:10;5.50;;;1.20;;
65706;SDS011;52423;43.512;5.220;2022-09-16T07:26:37;1.90;;;1.20;;
65706;SDS011;52423;43.512;5.220;2022-09-16T07:29:05;9.68;;;1.35;;
65706;SDS011;52423;43.512;5.220;2022-09-16T07:31:36;1.75;;;1.40;;
65706;SDS011;52423;43.512;5.220;2022-09-16T07:34:03;1.58;;;1.42;;
65706;SDS011;52423;43.512;5.220;2022-09-16T07:36:33;1.55;;;1.30;;
65706;SDS011;52423;43.512;5.220;2022-09-16T07:39:00;3.55;;;2.00;;
65706;SDS011;52423;43.512;5.220;2022-09-16T07:41:37;1.88;;;1.20;;
65706;SDS011;52423;43.512;5.220;2022-09-16T07:44:05;6.70;;;1.60;;
65706;SDS011;52423;43.512;5.220;2022-09-16T07:46:33;1.48;;;1.15;;
65706;SDS011;52423;43.512;5.220;2022-09-16T07:49:00;3.03;;;1.45;;
65706;SDS011;52423;43.512;5.220;2022-09-16T07:51:28;1.63;;;1.45;;
65706;SDS011;52423;43.512;5.220;2022-09-16T07:53:55;3.00;;;1.35;;
65706;SDS011;52423;43.512;5.220;2022-09-16T07:58:53;2.63;;;1.27;;
65706;SDS011;52423;43.512;5.220;2022-09-16T08:01:20;2.42;;;1.20;;
65706;SDS011;52423;43.512;5.220;2022-09-16T08:03:46;3.08;;;1.50;;
65706;SDS011;52423;43.512;5.220;2022-09-16T08:06:12;3.67;;;1.35;;
65706;SDS011;52423;43.512;5.220;2022-09-16T08:08:38;5.15;;;1.65;;
65706;SDS011;52423;43.512;5.220;2022-09-16T08:11:05;1.88;;;1.50;;
65706;SDS011;52423;43.512;5.220;2022-09-16T08:13:31;1.60;;;1.50;;
65706;SDS011;52423;43.512;5.220;2022-09-16T08:15:59;4.70;;;1.52;;
65706;SDS011;52423;43.512;5.220;2022-09-16T08:18:32;1.90;;;1.48;;
65706;SDS011;52423;43.512;5.220;2022-09-16T08:21:03;3.63;;;1.65;;
65706;SDS011;52423;43.512;5.220;2022-09-16T08:23:43;1.83;;;1.50;;
65706;SDS011;52423;43.512;5.220;2022-09-16T08:26:09;1.95;;;1.65;;
65706;SDS011;52423;43.512;5.220;2022-09-16T08:28:37;1.27;;;1.25;;
65706;SDS011;52423;43.512;5.220;2022-09-16T08:31:04;1.55;;;1.42;;
65706;SDS011;52423;43.512;5.220;2022-09-16T08:33:30;5.30;;;1.60;;
65706;SDS011;52423;43.512;5.220;2022-09-16T08:35:57;1.90;;;1.50;;
65706;SDS011;52423;43.512;5.220;2022-09-16T08:38:26;3.67;;;1.60;;
65706;SDS011;52423;43.512;5.220;2022-09-16T08:47:01;2.55;;;1.60;;
65706;SDS011;52423;43.512;5.220;2022-09-16T08:52:20;3.78;;;1.70;;
65706;SDS011;52423;43.512;5.220;2022-09-16T08:58:41;1.73;;;1.63;;
65706;SDS011;52423;43.512;5.220;2022-09-16T09:01:14;1.90;;;1.73;;
65706;SDS011;52423;43.512;5.220;2022-09-16T09:03:45;2.72;;;1.88;;
65706;SDS011;52423;43.512;5.220;2022-09-16T09:06:29;3.40;;;2.03;;
65706;SDS011;52423;43.512;5.220;2022-09-16T09:09:22;2.28;;;2.08;;
65706;SDS011;52423;43.512;5.220;2022-09-16T09:17:34;3.75;;;1.70;;
65706;SDS011;52423;43.512;5.220;2022-09-16T09:20:19;3.05;;;1.77;;
65706;SDS011;52423;43.512;5.220;2022-09-16T09:34:58;3.70;;;1.90;;
65706;SDS011;52423;43.512;5.220;2022-09-16T09:47:28;2.88;;;2.10;;
65706;SDS011;52423;43.512;5.220;2022-09-16T09:55:14;2.70;;;2.30;;
65706;SDS011;52423;43.512;5.220;2022-09-16T10:00:20;2.40;;;2.20;;
65706;SDS011;52423;43.512;5.220;2022-09-16T10:02:46;5.55;;;2.35;;
65706;SDS011;52423;43.512;5.220;2022-09-16T10:07:51;5.82;;;2.22;;
65706;SDS011;52423;43.512;5.220;2022-09-16T10:10:23;2.60;;;2.40;;
65706;SDS011;52423;43.512;5.220;2022-09-16T10:12:51;3.47;;;2.00;;
65706;SDS011;52423;43.512;5.220;2022-09-16T10:15:20;2.90;;;2.30;;
65706;SDS011;52423;43.512;5.220;2022-09-16T10:17:48;4.68;;;2.40;;
65706;SDS011;52423;43.512;5.220;2022-09-16T10:20:20;2.95;;;2.35;;
65706;SDS011;52423;43.512;5.220;2022-09-16T10:22:58;3.58;;;2.40;;
65706;SDS011;52423;43.512;5.220;2022-09-16T10:25:27;4.43;;;2.33;;
65706;SDS011;52423;43.512;5.220;2022-09-16T10:27:56;3.28;;;2.90;;
65706;SDS011;52423;43.512;5.220;2022-09-16T10:30:30;2.90;;;2.47;;
65706;SDS011;52423;43.512;5.220;2022-09-16T10:33:16;3.78;;;2.88;;
65706;SDS011;52423;43.512;5.220;2022-09-16T10:35:50;3.83;;;2.80;;
65706;SDS011;52423;43.512;5.220;2022-09-16T10:38:23;2.47;;;2.28;;
65706;SDS011;52423;43.512;5.220;2022-09-16T10:40:54;3.67;;;2.90;;
65706;SDS011;52423;43.512;5.220;2022-09-16T10:43:25;5.43;;;2.67;;
65706;SDS011;52423;43.512;5.220;2022-09-16T10:45:52;10.95;;;3.08;;
65706;SDS011;52423;43.512;5.220;2022-09-16T10:48:20;3.67;;;2.75;;
65706;SDS011;52423;43.512;5.220;2022-09-16T10:50:52;5.65;;;2.92;;
65706;SDS011;52423;43.512;5.220;2022-09-16T10:53:27;4.72;;;2.72;;
65706;SDS011;52423;43.512;5.220;2022-09-16T10:55:57;3.08;;;2.78;;
65706;SDS011;52423;43.512;5.220;2022-09-16T10:58:24;4.57;;;2.72;;
65706;SDS011;52423;43.512;5.220;2022-09-16T11:01:35;3.35;;;2.85;;
65706;SDS011;52423;43.512;5.220;2022-09-16T11:04:02;4.03;;;3.08;;
65706;SDS011;52423;43.512;5.220;2022-09-16T11:06:51;4.05;;;2.80;;
65706;SDS011;52423;43.512;5.220;2022-09-16T11:12:31;3.53;;;2.67;;
65706;SDS011;52423;43.512;5.220;2022-09-16T11:17:59;3.47;;;2.72;;
65706;SDS011;52423;43.512;5.220;2022-09-16T11:31:38;6.40;;;2.85;;
65706;SDS011;52423;43.512;5.220;2022-09-16T11:42:31;3.25;;;2.90;;
65706;SDS011;52423;43.512;5.220;2022-09-16T11:58:04;4.75;;;2.65;;
65706;SDS011;52423;43.512;5.220;2022-09-16T12:00:39;5.72;;;2.75;;
65706;SDS011;52423;43.512;5.220;2022-09-16T12:03:14;3.08;;;2.78;;
65706;SDS011;52423;43.512;5.220;2022-09-16T12:05:46;5.00;;;2.83;;
65706;SDS011;52423;43.512;5.220;2022-09-16T12:14:04;3.85;;;2.80;;
65706;SDS011;52423;43.512;5.220;2022-09-16T12:16:50;3.28;;;2.90;;
65706;SDS011;52423;43.512;5.220;2022-09-16T12:19:28;3.05;;;2.75;;
65706;SDS011;52423;43.512;5.220;2022-09-16T12:21:59;6.75;;;2.85;;
65706;SDS011;52423;43.512;5.220;2022-09-16T12:24:43;3.47;;;2.80;;
65706;SDS011;52423;43.512;5.220;2022-09-16T12:30:04;2.88;;;2.67;;
65706;SDS011;52423;43.512;5.220;2022-09-16T12:32:45;2.80;;;2.50;;
65706;SDS011;52423;43.512;5.220;2022-09-16T12:35:23;3.05;;;2.83;;
65706;SDS011;52423;43.512;5.220;2022-09-16T12:37:54;4.82;;;2.90;;
65706;SDS011;52423;43.512;5.220;2022-09-16T12:40:29;2.83;;;2.53;;
65706;SDS011;52423;43.512;5.220;2022-09-16T12:43:20;2.78;;;2.55;;
65706;SDS011;52423;43.512;5.220;2022-09-16T12:45:56;3.17;;;2.88;;
65706;SDS011;52423;43.512;5.220;2022-09-16T12:48:55;2.40;;;2.20;;
65706;SDS011;52423;43.512;5.220;2022-09-16T12:51:52;4.30;;;2.50;;
65706;SDS011;52423;43.512;5.220;2022-09-16T13:02:37;4.22;;;2.70;;
65706;SDS011;52423;43.512;5.220;2022-09-16T13:05:15;3.28;;;2.60;;
65706;SDS011;52423;43.512;5.220;2022-09-16T13:07:52;3.10;;;2.47;;
65706;SDS011;52423;43.512;5.220;2022-09-16T13:12:57;2.80;;;2.55;;
65706;SDS011;52423;43.512;5.220;2022-09-16T13:15:26;3.95;;;2.65;;
65706;SDS011;52423;43.512;5.220;2022-09-16T13:17:54;2.58;;;2.38;;
65706;SDS011;52423;43.512;5.220;2022-09-16T13:20:31;4.85;;;2.33;;
65706;SDS011;52423;43.512;5.220;2022-09-16T13:23:16;5.60;;;2.40;;
65706;SDS011;52423;43.512;5.220;2022-09-16T13:25:56;2.92;;;2.42;;
65706;SDS011;52423;43.512;5.220;2022-09-16T13:33:37;4.03;;;2.60;;
65706;SDS011;52423;43.512;5.220;2022-09-16T13:38:46;4.53;;;2.60;;
65706;SDS011;52423;43.512;5.220;2022-09-16T13:46:52;3.20;;;2.28;;
65706;SDS011;52423;43.512;5.220;2022-09-16T13:49:19;4.22;;;2.25;;
65706;SDS011;52423;43.512;5.220;2022-09-16T13:51:49;5.07;;;2.57;;
65706;SDS011;52423;43.512;5.220;2022-09-16T13:54:26;4.03;;;2.58;;
65706;SDS011;52423;43.512;5.220;2022-09-16T14:07:47;2.80;;;2.30;;
65706;SDS011;52423;43.512;5.220;2022-09-16T14:10:22;6.27;;;2.53;;
65706;SDS011;52423;43.512;5.220;2022-09-16T14:15:35;2.65;;;2.45;;
65706;SDS011;52423;43.512;5.220;2022-09-16T14:18:04;5.15;;;2.38;;
65706;SDS011;52423;43.512;5.220;2022-09-16T14:20:31;2.80;;;2.33;;
65706;SDS011;52423;43.512;5.220;2022-09-16T14:23:02;4.78;;;2.15;;
65706;SDS011;52423;43.512;5.220;2022-09-16T14:28:07;6.80;;;2.47;;
65706;SDS011;52423;43.512;5.220;2022-09-16T14:33:20;2.53;;;2.33;;
65706;SDS011;52423;43.512;5.220;2022-09-16T14:38:17;2.28;;;2.08;;
65706;SDS011;52423;43.512;5.220;2022-09-16T14:40:45;3.22;;;2.30;;
65706;SDS011;52423;43.512;5.220;2022-09-16T14:43:13;4.20;;;1.92;;
65706;SDS011;52423;43.512;5.220;2022-09-16T14:45:47;1.90;;;1.80;;
65706;SDS011;52423;43.512;5.220;2022-09-16T14:48:16;8.38;;;2.10;;
65706;SDS011;52423;43.512;5.220;2022-09-16T14:50:44;2.83;;;2.33;;
65706;SDS011;52423;43.512;5.220;2022-09-16T14:55:54;2.40;;;2.15;;
65706;SDS011;52423;43.512;5.220;2022-09-16T14:58:20;3.15;;;2.20;;
65706;SDS011;52423;43.512;5.220;2022-09-16T15:00:49;3.40;;;2.33;;
65706;SDS011;52423;43.512;5.220;2022-09-16T15:05:49;4.28;;;2.03;;
65706;SDS011;52423;43.512;5.220;2022-09-16T15:10:48;3.25;;;1.90;;
65706;SDS011;52423;43.512;5.220;2022-09-16T15:13:17;6.15;;;2.40;;
65706;SDS011;52423;43.512;5.220;2022-09-16T15:15:48;2.65;;;1.80;;
65706;SDS011;52423;43.512;5.220;2022-09-16T15:18:25;4.80;;;1.95;;
65706;SDS011;52423;43.512;5.220;2022-09-16T15:23:49;3.78;;;1.73;;
65706;SDS011;52423;43.512;5.220;2022-09-16T15:26:17;3.70;;;2.05;;
65706;SDS011;52423;43.512;5.220;2022-09-16T15:29:04;4.20;;;2.00;;
65706;SDS011;52423;43.512;5.220;2022-09-16T15:31:38;6.57;;;2.20;;
65706;SDS011;52423;43.512;5.220;2022-09-16T15:36:43;2.33;;;2.00;;
65706;SDS011;52423;43.512;5.220;2022-09-16T15:44:45;2.38;;;2.17;;
65706;SDS011;52423;43.512;5.220;2022-09-16T15:50:14;5.20;;;1.67;;
65706;SDS011;52423;43.512;5.220;2022-09-16T15:53:44;3.10;;;1.70;;
65706;SDS011;52423;43.512;5.220;2022-09-16T15:58:43;2.25;;;1.73;;
65706;SDS011;52423;43.512;5.220;2022-09-16T16:04:08;4.82;;;1.77;;
65706;SDS011;52423;43.512;5.220;2022-09-16T16:14:22;1.88;;;1.70;;
65706;SDS011;52423;43.512;5.220;2022-09-16T16:16:49;1.80;;;1.70;;
65706;SDS011;52423;43.512;5.220;2022-09-16T16:19:15;2.10;;;1.90;;
65706;SDS011;52423;43.512;5.220;2022-09-16T16:21:41;1.90;;;1.75;;
65706;SDS011;52423;43.512;5.220;2022-09-16T16:24:13;1.65;;;1.50;;
65706;SDS011;52423;43.512;5.220;2022-09-16T16:26:39;2.92;;;1.88;;
65706;SDS011;52423;43.512;5.220;2022-09-16T16:29:05;5.70;;;1.70;;
65706;SDS011;52423;43.512;5.220;2022-09-16T16:31:31;3.72;;;1.52;;
65706;SDS011;52423;43.512;5.220;2022-09-16T16:33:57;7.03;;;1.80;;
65706;SDS011;52423;43.512;5.220;2022-09-16T16:36:23;2.15;;;1.65;;
65706;SDS011;52423;43.512;5.220;2022-09-16T16:38:49;5.05;;;1.70;;
65706;SDS011;52423;43.512;5.220;2022-09-16T16:41:18;3.13;;;1.48;;
65706;SDS011;52423;43.512;5.220;2022-09-16T16:43:44;5.13;;;1.65;;
65706;SDS011;52423;43.512;5.220;2022-09-16T16:46:10;2.70;;;1.80;;
65706;SDS011;52423;43.512;5.220;2022-09-16T16:48:36;1.67;;;1.58;;
65706;SDS011;52423;43.512;5.220;2022-09-16T16:51:04;3.70;;;1.75;;
65706;SDS011;52423;43.512;5.220;2022-09-16T16:53:32;3.05;;;1.63;;
65706;SDS011;52423;43.512;5.220;2022-09-16T16:56:16;4.10;;;2.00;;
65706;SDS011;52423;43.512;5.220;2022-09-16T16:58:42;2.80;;;1.77;;
65706;SDS011;52423;43.512;5.220;2022-09-16T17:01:15;2.00;;;1.90;;
65706;SDS011;52423;43.512;5.220;2022-09-16T17:03:44;2.63;;;1.88;;
65706;SDS011;52423;43.512;5.220;2022-09-16T17:06:13;5.50;;;1.88;;
65706;SDS011;52423;43.512;5.220;2022-09-16T17:08:39;6.25;;;2.00;;
65706;SDS011;52423;43.512;5.220;2022-09-16T17:11:05;5.07;;;1.85;;
65706;SDS011;52423;43.512;5.220;2022-09-16T17:13:31;3.80;;;1.45;;
65706;SDS011;52423;43.512;5.220;2022-09-16T17:15:57;3.00;;;1.52;;
65706;SDS011;52423;43.512;5.220;2022-09-16T17:18:23;1.77;;;1.60;;
65706;SDS011;52423;43.512;5.220;2022-09-16T17:20:49;1.98;;;1.50;;
65706;SDS011;52423;43.512;5.220;2022-09-16T17:23:14;1.80;;;1.70;;
65706;SDS011;52423;43.512;5.220;2022-09-16T17:25:40;2.25;;;1.63;;
65706;SDS011;52423;43.512;5.220;2022-09-16T17:28:05;1.60;;;1.50;;
65706;SDS011;52423;43.512;5.220;2022-09-16T17:30:32;9.10;;;2.35;;
65706;SDS011;52423;43.512;5.220;2022-09-16T17:32:57;1.92;;;1.83;;
65706;SDS011;52423;43.512;5.220;2022-09-16T17:35:23;2.08;;;1.70;;
65706;SDS011;52423;43.512;5.220;2022-09-16T17:37:49;5.70;;;1.77;;
65706;SDS011;52423;43.512;5.220;2022-09-16T17:40:14;1.98;;;1.77;;
65706;SDS011;52423;43.512;5.220;2022-09-16T17:42:40;6.68;;;1.85;;
65706;SDS011;52423;43.512;5.220;2022-09-16T17:45:06;4.28;;;2.13;;
65706;SDS011;52423;43.512;5.220;2022-09-16T17:47:32;3.25;;;1.85;;
65706;SDS011;52423;43.512;5.220;2022-09-16T17:49:58;1.75;;;1.63;;
65706;SDS011;52423;43.512;5.220;2022-09-16T17:52:28;5.15;;;2.03;;
65706;SDS011;52423;43.512;5.220;2022-09-16T17:54:54;4.18;;;2.03;;
65706;SDS011;52423;43.512;5.220;2022-09-16T17:57:20;2.17;;;1.55;;
65706;SDS011;52423;43.512;5.220;2022-09-16T17:59:46;5.90;;;2.05;;
65706;SDS011;52423;43.512;5.220;2022-09-16T18:02:12;3.47;;;2.08;;
65706;SDS011;52423;43.512;5.220;2022-09-16T18:04:40;6.95;;;1.80;;
65706;SDS011;52423;43.512;5.220;2022-09-16T18:07:07;3.38;;;1.70;;
65706;SDS011;52423;43.512;5.220;2022-09-16T18:09:34;5.00;;;2.00;;
65706;SDS011;52423;43.512;5.220;2022-09-16T18:12:00;2.80;;;2.20;;
65706;SDS011;52423;43.512;5.220;2022-09-16T18:14:26;5.22;;;2.33;;
65706;SDS011;52423;43.512;5.220;2022-09-16T18:16:51;2.25;;;2.05;;
65706;SDS011;52423;43.512;5.220;2022-09-16T18:19:17;2.60;;;2.10;;
65706;SDS011;52423;43.512;5.220;2022-09-16T18:21:43;5.40;;;1.90;;
65706;SDS011;52423;43.512;5.220;2022-09-16T18:24:09;4.47;;;1.95;;
65706;SDS011;52423;43.512;5.220;2022-09-16T18:26:37;3.78;;;1.98;;
65706;SDS011;52423;43.512;5.220;2022-09-16T18:29:04;2.00;;;1.80;;
65706;SDS011;52423;43.512;5.220;2022-09-16T18:31:30;5.43;;;2.00;;
65706;SDS011;52423;43.512;5.220;2022-09-16T18:33:57;4.35;;;1.95;;
65706;SDS011;52423;43.512;5.220;2022-09-16T18:36:23;2.35;;;2.05;;
65706;SDS011;52423;43.512;5.220;2022-09-16T18:38:51;2.97;;;2.20;;
65706;SDS011;52423;43.512;5.220;2022-09-16T18:41:21;6.35;;;2.03;;
65706;SDS011;52423;43.512;5.220;2022-09-16T18:43:53;4.70;;;2.20;;
65706;SDS011;52423;43.512;5.220;2022-09-16T18:46:24;2.30;;;2.00;;
65706;SDS011;52423;43.512;5.220;2022-09-16T18:48:51;3.45;;;2.20;;
65706;SDS011;52423;43.512;5.220;2022-09-16T18:53:48;3.70;;;2.20;;
65706;SDS011;52423;43.512;5.220;2022-09-16T18:56:16;2.40;;;2.20;;
65706;SDS011;52423;43.512;5.220;2022-09-16T18:58:43;2.92;;;1.65;;
65706;SDS011;52423;43.512;5.220;2022-09-16T19:01:28;2.20;;;1.92;;
65706;SDS011;52423;43.512;5.220;2022-09-16T19:03:57;3.30;;;2.10;;
65706;SDS011;52423;43.512;5.220;2022-09-16T19:06:27;5.35;;;2.08;;
65706;SDS011;52423;43.512;5.220;2022-09-16T19:08:57;4.45;;;2.50;;
65706;SDS011;52423;43.512;5.220;2022-09-16T19:11:23;5.22;;;2.83;;